createdAt,value
2017-06-13T00:00:46.233Z,15.71
2017-06-13T00:02:08.073Z,15.8
2017-06-13T00:03:29.894Z,15.8
2017-06-13T00:04:51.715Z,15.78
2017-06-13T00:06:13.557Z,15.76
2017-06-13T00:07:35.174Z,15.82
2017-06-13T00:08:57.774Z,15.8
2017-06-13T00:10:20.223Z,15.76
2017-06-13T00:11:42.483Z,15.78
2017-06-13T00:13:04.030Z,15.68
2017-06-13T00:14:25.951Z,15.72
2017-06-13T00:15:48.401Z,15.72
2017-06-13T00:17:10.326Z,15.71
2017-06-13T00:18:32.454Z,15.68
2017-06-13T00:19:54.605Z,15.71
2017-06-13T00:21:16.756Z,15.67
2017-06-13T00:22:38.664Z,15.64
2017-06-13T00:24:00.550Z,15.69
2017-06-13T00:25:22.373Z,15.71
2017-06-13T00:26:44.524Z,15.69
2017-06-13T00:28:06.353Z,15.64
2017-06-13T00:29:28.318Z,15.74
2017-06-13T00:30:50.470Z,15.69
2017-06-13T00:32:11.980Z,15.76
2017-06-13T00:33:33.794Z,15.68
2017-06-13T00:34:55.648Z,15.71
2017-06-13T00:36:17.213Z,15.64
2017-06-13T00:37:39.043Z,15.75
2017-06-13T00:39:01.525Z,15.68
2017-06-13T00:40:23.671Z,15.69
2017-06-13T00:41:45.823Z,15.72
2017-06-13T00:43:07.651Z,15.67
2017-06-13T00:44:30.191Z,15.64
2017-06-13T00:45:52.003Z,15.68
2017-06-13T00:47:13.823Z,15.69
2017-06-13T00:48:35.692Z,15.71
2017-06-13T00:49:58.203Z,15.75
2017-06-13T00:51:19.773Z,15.68
2017-06-13T00:52:41.924Z,15.72
2017-06-13T00:54:04.073Z,15.67
2017-06-13T00:55:26.559Z,15.65
2017-06-13T00:56:48.734Z,15.69
2017-06-13T00:58:11.182Z,15.72
2017-06-13T00:59:33.318Z,15.68
2017-06-13T01:00:55.493Z,15.69
2017-06-13T01:02:17.631Z,15.68
2017-06-13T01:03:39.489Z,15.65
2017-06-13T01:05:01.683Z,15.56
2017-06-13T01:06:23.854Z,15.62
2017-06-13T01:07:46.002Z,15.59
2017-06-13T01:09:07.964Z,15.64
2017-06-13T01:10:29.882Z,15.64
2017-06-13T01:11:51.722Z,15.68
2017-06-13T01:13:13.553Z,15.56
2017-06-13T01:14:35.422Z,15.57
2017-06-13T01:15:57.883Z,15.53
2017-06-13T01:17:19.722Z,15.62
2017-06-13T01:18:42.194Z,15.51
2017-06-13T01:20:03.702Z,15.59
2017-06-13T01:21:25.510Z,15.54
2017-06-13T01:22:48.082Z,15.54
2017-06-13T01:24:10.359Z,15.6
2017-06-13T01:25:31.866Z,15.54
2017-06-13T01:26:54.033Z,15.64
2017-06-13T01:28:15.982Z,15.54
2017-06-13T01:29:38.444Z,15.62
2017-06-13T01:31:00.713Z,15.64
2017-06-13T01:32:22.593Z,15.53
2017-06-13T01:33:44.416Z,15.49
2017-06-13T01:35:06.871Z,15.54
2017-06-13T01:36:29.003Z,15.49
2017-06-13T01:37:51.193Z,15.56
2017-06-13T01:39:13.066Z,15.51
2017-06-13T01:40:34.567Z,15.53
2017-06-13T01:41:56.072Z,15.53
2017-06-13T01:43:17.582Z,15.49
2017-06-13T01:44:39.420Z,15.59
2017-06-13T01:46:00.301Z,15.59
2017-06-13T01:47:22.137Z,15.5
2017-06-13T01:48:43.649Z,15.59
2017-06-13T01:50:05.173Z,15.62
2017-06-13T01:51:27.342Z,15.51
2017-06-13T01:52:49.185Z,15.6
2017-06-13T01:54:11.001Z,15.6
2017-06-13T01:55:33.173Z,15.5
2017-06-13T01:56:55.742Z,15.54
2017-06-13T01:58:17.991Z,15.59
2017-06-13T01:59:39.820Z,15.57
2017-06-13T02:01:01.992Z,15.6
2017-06-13T02:02:24.141Z,15.57
2017-06-13T02:03:46.303Z,15.62
2017-06-13T02:05:08.462Z,15.57
2017-06-13T02:06:29.975Z,15.53
2017-06-13T02:07:51.501Z,15.54
2017-06-13T02:09:13.632Z,15.46
2017-06-13T02:10:35.902Z,15.49
2017-06-13T02:11:58.085Z,15.54
2017-06-13T02:13:20.560Z,15.49
2017-06-13T02:14:43.008Z,15.51
2017-06-13T02:16:05.495Z,15.49
2017-06-13T02:17:27.003Z,15.51
2017-06-13T02:18:48.596Z,15.56
2017-06-13T02:20:10.773Z,15.47
2017-06-13T02:21:32.026Z,15.39
2017-06-13T02:22:53.844Z,15.59
2017-06-13T02:24:16.043Z,15.47
2017-06-13T02:25:37.856Z,15.39
2017-06-13T02:26:59.660Z,15.47
2017-06-13T02:28:22.138Z,15.5
2017-06-13T02:29:44.264Z,15.38
2017-06-13T02:31:06.842Z,15.29
2017-06-13T02:32:28.662Z,15.28
2017-06-13T02:33:51.352Z,15.13
2017-06-13T02:35:12.844Z,15.03
2017-06-13T02:36:34.504Z,14.99
2017-06-13T02:37:56.498Z,14.94
2017-06-13T02:39:18.632Z,14.86
2017-06-13T02:40:40.790Z,14.8
2017-06-13T02:42:02.966Z,14.73
2017-06-13T02:43:24.523Z,14.72
2017-06-13T02:44:47.343Z,14.69
2017-06-13T02:46:09.503Z,14.58
2017-06-13T02:47:31.648Z,14.58
2017-06-13T02:48:53.471Z,14.47
2017-06-13T02:50:15.001Z,14.52
2017-06-13T02:51:36.820Z,14.55
2017-06-13T02:52:59.062Z,14.46
2017-06-13T02:54:20.893Z,14.35
2017-06-13T02:55:43.782Z,14.39
2017-06-13T02:57:05.593Z,14.42
2017-06-13T02:58:27.409Z,14.27
2017-06-13T02:59:49.542Z,14.28
2017-06-13T03:01:12.118Z,14.24
2017-06-13T03:02:34.584Z,14.24
2017-06-13T03:03:56.707Z,14.25
2017-06-13T03:05:18.216Z,14.2
2017-06-13T03:06:40.649Z,14.22
2017-06-13T03:08:02.466Z,14.24
2017-06-13T03:09:24.616Z,14.2
2017-06-13T03:10:46.282Z,14.14
2017-06-13T03:12:07.943Z,14.04
2017-06-13T03:13:30.138Z,14.06
2017-06-13T03:14:51.638Z,14.17
2017-06-13T03:16:13.796Z,14.12
2017-06-13T03:17:35.950Z,14.14
2017-06-13T03:18:58.067Z,14.15
2017-06-13T03:20:20.344Z,14.2
2017-06-13T03:21:42.785Z,14.15
2017-06-13T03:23:04.932Z,14.18
2017-06-13T03:24:26.813Z,14.17
2017-06-13T03:25:49.003Z,14.17
2017-06-13T03:27:11.121Z,14.17
2017-06-13T03:28:32.978Z,14.18
2017-06-13T03:29:54.598Z,14.22
2017-06-13T03:31:16.429Z,14.25
2017-06-13T03:32:38.907Z,14.25
2017-06-13T03:34:01.045Z,14.25
2017-06-13T03:35:22.864Z,14.2
2017-06-13T03:36:44.688Z,14.18
2017-06-13T03:38:06.530Z,14.21
2017-06-13T03:39:29.032Z,14.24
2017-06-13T03:40:50.863Z,14.24
2017-06-13T03:42:13.004Z,14.27
2017-06-13T03:43:35.233Z,14.36
2017-06-13T03:44:56.747Z,14.29
2017-06-13T03:46:18.580Z,14.33
2017-06-13T03:47:41.157Z,14.33
2017-06-13T03:49:03.272Z,14.4
2017-06-13T03:50:25.766Z,14.36
2017-06-13T03:51:47.953Z,14.37
2017-06-13T03:53:10.214Z,14.39
2017-06-13T03:54:32.363Z,14.35
2017-06-13T03:55:55.343Z,14.29
2017-06-13T03:57:17.502Z,14.43
2017-06-13T03:58:40.042Z,14.47
2017-06-13T04:00:01.560Z,14.47
2017-06-13T04:01:23.091Z,14.57
2017-06-13T04:02:45.553Z,14.58
2017-06-13T04:04:08.011Z,14.58
2017-06-13T04:05:29.843Z,14.64
2017-06-13T04:06:51.652Z,14.75
2017-06-13T04:08:13.600Z,14.73
2017-06-13T04:09:35.423Z,14.8
2017-06-13T04:10:57.581Z,14.88
2017-06-13T04:12:20.396Z,14.8
2017-06-13T04:13:42.542Z,14.86
2017-06-13T04:15:04.842Z,14.99
2017-06-13T04:16:26.658Z,15.01
2017-06-13T04:17:49.142Z,15.01
2017-06-13T04:19:11.621Z,15.02
2017-06-13T04:20:33.182Z,15.09
2017-06-13T04:21:55.123Z,15.14
2017-06-13T04:23:16.639Z,15.34
2017-06-13T04:24:38.660Z,15.36
2017-06-13T04:26:00.810Z,15.51
2017-06-13T04:27:22.318Z,15.68
2017-06-13T04:28:45.232Z,15.72
2017-06-13T04:30:07.055Z,15.72
2017-06-13T04:31:29.292Z,15.74
2017-06-13T04:32:51.125Z,15.87
2017-06-13T04:34:13.590Z,15.93
2017-06-13T04:35:35.104Z,15.97
2017-06-13T04:36:57.565Z,15.93
2017-06-13T04:38:19.783Z,15.78
2017-06-13T04:39:41.923Z,15.74
2017-06-13T04:41:04.389Z,15.84
2017-06-13T04:42:26.548Z,15.93
2017-06-13T04:43:48.493Z,15.87
2017-06-13T04:45:10.650Z,16
2017-06-13T04:46:32.179Z,15.9
2017-06-13T04:47:54.003Z,16.08
2017-06-13T04:49:15.513Z,16.08
2017-06-13T04:50:37.694Z,16.23
2017-06-13T04:51:59.201Z,16.46
2017-06-13T04:53:21.423Z,17.19
2017-06-13T04:54:43.317Z,18.78
2017-06-13T04:56:05.234Z,20.67
2017-06-13T04:57:27.065Z,22
2017-06-13T04:58:48.584Z,22.42
2017-06-13T05:00:11.093Z,23.15
2017-06-13T05:01:33.459Z,23.95
2017-06-13T05:02:55.935Z,24.2
2017-06-13T05:04:18.572Z,24.77
2017-06-13T05:05:40.152Z,25.62
2017-06-13T05:07:02.310Z,25.64
2017-06-13T05:08:24.579Z,24.64
2017-06-13T05:09:46.745Z,23.43
2017-06-13T05:11:08.245Z,22.51
2017-06-13T05:12:30.410Z,22.25
2017-06-13T05:13:52.539Z,21.61
2017-06-13T05:15:14.683Z,21.94
2017-06-13T05:16:36.194Z,23.5
2017-06-13T05:17:57.423Z,24.77
2017-06-13T05:19:19.583Z,25.72
2017-06-13T05:20:41.483Z,25.9
2017-06-13T05:22:03.372Z,25.67
2017-06-13T05:23:24.939Z,25.5
2017-06-13T05:24:46.452Z,24.52
2017-06-13T05:26:08.603Z,25.51
2017-06-13T05:27:31.158Z,26.17
2017-06-13T05:28:52.708Z,26.05
2017-06-13T05:30:14.863Z,25.91
2017-06-13T05:31:37.131Z,26.65
2017-06-13T05:32:59.282Z,27.03
2017-06-13T05:34:21.112Z,28
2017-06-13T05:35:42.670Z,28.59
2017-06-13T05:37:04.256Z,28.17
2017-06-13T05:38:26.110Z,27.12
2017-06-13T05:39:47.993Z,26.82
2017-06-13T05:41:10.474Z,26.63
2017-06-13T05:42:32.011Z,26.51
2017-06-13T05:43:53.891Z,26.67
2017-06-13T05:45:15.408Z,26.39
2017-06-13T05:46:37.265Z,25.79
2017-06-13T05:47:59.445Z,24.78
2017-06-13T05:49:20.971Z,23.9
2017-06-13T05:50:43.144Z,23.13
2017-06-13T05:52:05.363Z,22.05
2017-06-13T05:53:27.194Z,21.67
2017-06-13T05:54:49.343Z,21.62
2017-06-13T05:56:11.814Z,21.4
2017-06-13T05:57:34.273Z,21.28
2017-06-13T05:58:56.523Z,21.42
2017-06-13T06:00:18.351Z,21.12
2017-06-13T06:01:40.856Z,21.25
2017-06-13T06:03:02.716Z,21.17
2017-06-13T06:04:24.713Z,21.14
2017-06-13T06:05:45.907Z,20.84
2017-06-13T06:07:08.369Z,20.58
2017-06-13T06:08:30.984Z,20.51
2017-06-13T06:09:53.139Z,20.2
2017-06-13T06:11:15.620Z,20.26
2017-06-13T06:12:37.982Z,20.2
2017-06-13T06:13:59.627Z,20.05
2017-06-13T06:15:21.133Z,20.01
2017-06-13T06:16:42.652Z,19.98
2017-06-13T06:18:04.732Z,20.01
2017-06-13T06:19:26.943Z,19.84
2017-06-13T06:20:49.099Z,19.76
2017-06-13T06:22:11.303Z,19.76
2017-06-13T06:23:33.044Z,19.76
2017-06-13T06:24:55.649Z,19.78
2017-06-13T06:26:16.959Z,19.61
2017-06-13T06:27:39.123Z,19.61
2017-06-13T06:29:00.800Z,19.91
2017-06-13T06:30:22.676Z,20.06
2017-06-13T06:31:45.130Z,19.98
2017-06-13T06:33:06.348Z,19.98
2017-06-13T06:34:28.908Z,19.98
2017-06-13T06:35:51.457Z,19.88
2017-06-13T06:37:13.677Z,19.87
2017-06-13T06:38:35.832Z,19.77
2017-06-13T06:39:57.678Z,19.92
2017-06-13T06:41:19.922Z,19.96
2017-06-13T06:42:42.082Z,19.95
2017-06-13T06:44:03.284Z,19.83
2017-06-13T06:45:25.126Z,19.61
2017-06-13T06:46:47.498Z,19.61
2017-06-13T06:48:09.400Z,19.59
2017-06-13T06:49:31.869Z,19.47
2017-06-13T06:50:53.729Z,19.92
2017-06-13T06:52:15.896Z,19.74
2017-06-13T06:53:38.510Z,19.94
2017-06-13T06:55:00.765Z,20.21
2017-06-13T06:56:22.595Z,20.32
2017-06-13T06:57:44.111Z,20.1
2017-06-13T06:59:05.942Z,20.2
2017-06-13T07:00:28.403Z,20.24
2017-06-13T07:01:50.597Z,20.08
2017-06-13T07:03:13.067Z,20.28
2017-06-13T07:04:34.912Z,20.59
2017-06-13T07:05:56.773Z,21.53
2017-06-13T07:07:19.023Z,22.09
2017-06-13T07:08:40.909Z,21.92
2017-06-13T07:10:03.253Z,21.79
2017-06-13T07:11:25.711Z,21.67
2017-06-13T07:12:47.873Z,21.75
2017-06-13T07:14:10.033Z,22.07
2017-06-13T07:15:32.197Z,22.77
2017-06-13T07:16:54.265Z,22.62
2017-06-13T07:18:15.853Z,22.45
2017-06-13T07:19:37.846Z,22.54
2017-06-13T07:21:00.055Z,22.72
2017-06-13T07:22:21.888Z,22.51
2017-06-13T07:23:43.819Z,22.54
2017-06-13T07:25:05.788Z,23.47
2017-06-13T07:26:27.622Z,24.81
2017-06-13T07:27:49.649Z,25.79
2017-06-13T07:29:11.191Z,26.29
2017-06-13T07:30:33.334Z,27.18
2017-06-13T07:31:55.533Z,27.22
2017-06-13T07:33:17.687Z,26.37
2017-06-13T07:34:39.842Z,26.66
2017-06-13T07:36:01.484Z,26.44
2017-06-13T07:37:23.004Z,27.28
2017-06-13T07:38:44.913Z,28.11
2017-06-13T07:40:06.763Z,30
2017-06-13T07:41:28.597Z,31.01
2017-06-13T07:42:50.782Z,29.64
2017-06-13T07:44:12.943Z,28.36
2017-06-13T07:45:34.485Z,28.4
2017-06-13T07:46:56.672Z,27.51
2017-06-13T07:48:19.142Z,26.33
2017-06-13T07:49:41.311Z,25.77
2017-06-13T07:51:03.196Z,25.6
2017-06-13T07:52:25.444Z,25.62
2017-06-13T07:53:47.375Z,26.13
2017-06-13T07:55:09.380Z,26.32
2017-06-13T07:56:31.852Z,26.12
2017-06-13T07:57:53.132Z,25.57
2017-06-13T07:59:15.282Z,25.23
2017-06-13T08:00:37.200Z,25.15
2017-06-13T08:01:59.406Z,24.76
2017-06-13T08:03:21.324Z,24.52
2017-06-13T08:04:43.813Z,24.02
2017-06-13T08:06:06.002Z,23.35
2017-06-13T08:07:28.472Z,23.32
2017-06-13T08:08:50.310Z,23.42
2017-06-13T08:10:12.162Z,23.63
2017-06-13T08:11:34.062Z,23.95
2017-06-13T08:12:56.264Z,23.53
2017-06-13T08:14:18.415Z,22.42
2017-06-13T08:15:40.982Z,22.43
2017-06-13T08:17:03.462Z,22.62
2017-06-13T08:18:26.163Z,22.58
2017-06-13T08:19:48.310Z,22.39
2017-06-13T08:21:10.482Z,22.43
2017-06-13T08:22:32.678Z,22.3
2017-06-13T08:23:54.583Z,21.83
2017-06-13T08:25:16.122Z,21.65
2017-06-13T08:26:37.674Z,21.43
2017-06-13T08:27:59.515Z,21.12
2017-06-13T08:29:21.351Z,21.01
2017-06-13T08:30:42.631Z,21.13
2017-06-13T08:32:04.901Z,21.19
2017-06-13T08:33:26.421Z,21.29
2017-06-13T08:34:48.571Z,21.46
2017-06-13T08:36:11.441Z,21.56
2017-06-13T08:37:33.003Z,21.17
2017-06-13T08:38:55.202Z,20.99
2017-06-13T08:40:17.692Z,20.82
2017-06-13T08:41:40.255Z,20.59
2017-06-13T08:43:02.090Z,20.55
2017-06-13T08:44:24.551Z,20.8
2017-06-13T08:45:46.753Z,21.07
2017-06-13T08:47:08.607Z,21.16
2017-06-13T08:48:30.762Z,21.13
2017-06-13T08:49:52.909Z,20.98
2017-06-13T08:51:14.526Z,21.24
2017-06-13T08:52:36.481Z,21.46
2017-06-13T08:53:58.322Z,21.58
2017-06-13T08:55:20.592Z,21.72
2017-06-13T08:56:43.097Z,21.86
2017-06-13T08:58:05.267Z,21.94
2017-06-13T08:59:27.445Z,21.82
2017-06-13T09:00:49.611Z,21.84
2017-06-13T09:02:11.426Z,21.94
2017-06-13T09:03:33.579Z,21.59
2017-06-13T09:04:55.429Z,21.09
2017-06-13T09:06:17.660Z,20.73
2017-06-13T09:07:39.812Z,20.33
2017-06-13T09:09:01.972Z,20.06
2017-06-13T09:10:23.550Z,20.08
2017-06-13T09:11:45.190Z,20.06
2017-06-13T09:13:07.321Z,20.29
2017-06-13T09:14:29.142Z,20.55
2017-06-13T09:15:51.719Z,20.76
2017-06-13T09:17:13.892Z,20.57
2017-06-13T09:18:36.110Z,20.52
2017-06-13T09:19:58.421Z,20.5
2017-06-13T09:21:20.592Z,20.2
2017-06-13T09:22:43.076Z,20.02
2017-06-13T09:24:05.249Z,19.94
2017-06-13T09:25:27.864Z,19.84
2017-06-13T09:26:49.753Z,19.66
2017-06-13T09:28:12.220Z,19.71
2017-06-13T09:29:34.746Z,19.84
2017-06-13T09:30:56.921Z,20.03
2017-06-13T09:32:19.081Z,20.17
2017-06-13T09:33:41.270Z,20.39
2017-06-13T09:35:03.472Z,20.77
2017-06-13T09:36:25.947Z,21.03
2017-06-13T09:37:47.646Z,21.19
2017-06-13T09:39:09.481Z,21.56
2017-06-13T09:40:31.751Z,21.61
2017-06-13T09:41:53.581Z,21.72
2017-06-13T09:43:16.116Z,22.05
2017-06-13T09:44:38.629Z,22.1
2017-06-13T09:46:00.162Z,21.99
2017-06-13T09:47:22.329Z,21.67
2017-06-13T09:48:44.798Z,21.4
2017-06-13T09:50:06.687Z,21.09
2017-06-13T09:51:28.557Z,20.87
2017-06-13T09:52:50.417Z,20.67
2017-06-13T09:54:12.573Z,20.52
2017-06-13T09:55:35.050Z,20.29
2017-06-13T09:56:57.513Z,20.31
2017-06-13T09:58:19.360Z,20.54
2017-06-13T09:59:40.891Z,21.04
2017-06-13T10:01:03.129Z,21.24
2017-06-13T10:02:25.447Z,21.5
2017-06-13T10:03:47.891Z,21.69
2017-06-13T10:05:09.417Z,21.9
2017-06-13T10:06:31.588Z,22.17
2017-06-13T10:07:53.437Z,22.3
2017-06-13T10:09:14.647Z,22.97
2017-06-13T10:10:37.291Z,23.42
2017-06-13T10:11:59.752Z,23.75
2017-06-13T10:13:21.798Z,23.91
2017-06-13T10:14:44.282Z,23.79
2017-06-13T10:16:06.508Z,23.35
2017-06-13T10:17:28.070Z,23.32
2017-06-13T10:18:49.968Z,22.97
2017-06-13T10:20:11.793Z,22.95
2017-06-13T10:21:34.590Z,22.91
2017-06-13T10:22:56.752Z,22.58
2017-06-13T10:24:18.968Z,22.21
2017-06-13T10:25:41.140Z,21.88
2017-06-13T10:27:02.959Z,21.68
2017-06-13T10:28:25.262Z,21.22
2017-06-13T10:29:47.477Z,20.99
2017-06-13T10:31:09.619Z,21.01
2017-06-13T10:32:31.816Z,21.07
2017-06-13T10:33:53.032Z,21.13
2017-06-13T10:35:15.207Z,20.99
2017-06-13T10:36:37.701Z,20.76
2017-06-13T10:37:58.927Z,20.57
2017-06-13T10:39:20.464Z,20.66
2017-06-13T10:40:42.931Z,20.74
2017-06-13T10:42:04.881Z,20.76
2017-06-13T10:43:27.040Z,20.84
2017-06-13T10:44:49.320Z,21.19
2017-06-13T10:46:11.489Z,21.69
2017-06-13T10:47:33.324Z,22.1
2017-06-13T10:48:55.491Z,22.43
2017-06-13T10:50:17.769Z,22.79
2017-06-13T10:51:39.934Z,22.61
2017-06-13T10:53:02.070Z,22.54
2017-06-13T10:54:24.561Z,22.2
2017-06-13T10:55:46.883Z,22.14
2017-06-13T10:57:09.173Z,22.03
2017-06-13T10:58:30.670Z,21.94
2017-06-13T10:59:52.280Z,21.83
2017-06-13T11:01:15.008Z,21.94
2017-06-13T11:02:37.210Z,22
2017-06-13T11:03:59.390Z,21.68
2017-06-13T11:05:21.670Z,21.58
2017-06-13T11:06:43.827Z,21.17
2017-06-13T11:08:06.011Z,20.98
2017-06-13T11:09:28.150Z,20.77
2017-06-13T11:10:50.709Z,20.58
2017-06-13T11:12:12.864Z,20.35
2017-06-13T11:13:34.774Z,20.18
2017-06-13T11:14:56.764Z,20.08
2017-06-13T11:16:18.609Z,20.18
2017-06-13T11:17:40.456Z,20.38
2017-06-13T11:19:02.627Z,20.82
2017-06-13T11:20:24.511Z,21.32
2017-06-13T11:21:46.989Z,22.02
2017-06-13T11:23:09.645Z,22.55
2017-06-13T11:24:31.179Z,22.68
2017-06-13T11:25:53.029Z,22.72
2017-06-13T11:27:14.861Z,22.64
2017-06-13T11:28:36.700Z,22.42
2017-06-13T11:29:58.911Z,22.15
2017-06-13T11:31:20.758Z,21.62
2017-06-13T11:32:42.710Z,21.22
2017-06-13T11:34:05.297Z,20.87
2017-06-13T11:35:27.144Z,20.74
2017-06-13T11:36:49.120Z,20.79
2017-06-13T11:38:11.103Z,20.97
2017-06-13T11:39:32.938Z,21.22
2017-06-13T11:40:54.983Z,21.4
2017-06-13T11:42:16.840Z,21.83
2017-06-13T11:43:39.019Z,22.49
2017-06-13T11:45:01.243Z,22.7
2017-06-13T11:46:23.399Z,22.82
2017-06-13T11:47:45.700Z,22.94
2017-06-13T11:49:07.853Z,23
2017-06-13T11:50:29.718Z,22.8
2017-06-13T11:51:52.751Z,22.54
2017-06-13T11:53:14.901Z,22.15
2017-06-13T11:54:37.041Z,21.59
2017-06-13T11:55:59.201Z,21.07
2017-06-13T11:57:22.297Z,20.61
2017-06-13T11:58:44.472Z,20.31
2017-06-13T12:00:06.647Z,20.33
2017-06-13T12:01:29.114Z,20.39
2017-06-13T12:02:51.323Z,20.73
2017-06-13T12:04:13.182Z,20.97
2017-06-13T12:05:35.028Z,21.17
2017-06-13T12:06:56.877Z,21.59
2017-06-13T12:08:19.351Z,21.96
2017-06-13T12:09:41.541Z,22.18
2017-06-13T12:11:03.750Z,22.55
2017-06-13T12:12:26.113Z,22.7
2017-06-13T12:13:48.934Z,22.62
2017-06-13T12:15:11.117Z,22.17
2017-06-13T12:16:33.606Z,21.69
2017-06-13T12:17:55.158Z,21.32
2017-06-13T12:19:17.999Z,20.97
2017-06-13T12:20:40.484Z,20.59
2017-06-13T12:22:03.231Z,20.24
2017-06-13T12:23:25.140Z,20.08
2017-06-13T12:24:47.601Z,20.08
2017-06-13T12:26:10.043Z,20.29
2017-06-13T12:27:32.313Z,20.54
2017-06-13T12:28:54.789Z,20.64
2017-06-13T12:30:16.947Z,20.98
2017-06-13T12:31:39.100Z,21.31
2017-06-13T12:33:01.297Z,21.62
2017-06-13T12:34:23.450Z,21.9
2017-06-13T12:35:45.411Z,22.25
2017-06-13T12:37:07.275Z,22.62
2017-06-13T12:38:29.596Z,22.9
2017-06-13T12:39:51.443Z,22.58
2017-06-13T12:41:13.945Z,22.35
2017-06-13T12:42:36.113Z,22.1
2017-06-13T12:43:58.711Z,21.92
2017-06-13T12:45:20.600Z,21.49
2017-06-13T12:46:43.243Z,21.17
2017-06-13T12:48:05.413Z,20.98
2017-06-13T12:49:27.557Z,20.91
2017-06-13T12:50:49.736Z,20.82
2017-06-13T12:52:11.910Z,20.66
2017-06-13T12:53:34.391Z,20.35
2017-06-13T12:54:56.900Z,20.23
2017-06-13T12:56:17.804Z,20.1
2017-06-13T12:57:39.972Z,20.17
2017-06-13T12:59:02.628Z,20.32
2017-06-13T13:00:25.138Z,20.51
2017-06-13T13:01:47.603Z,20.69
2017-06-13T13:03:09.771Z,20.94
2017-06-13T13:04:32.257Z,21.06
2017-06-13T13:05:54.627Z,21.25
2017-06-13T13:07:17.110Z,21.42
2017-06-13T13:08:39.581Z,21.42
2017-06-13T13:10:02.181Z,21.35
2017-06-13T13:11:24.668Z,21.38
2017-06-13T13:12:46.191Z,21.67
2017-06-13T13:14:07.821Z,22.06
2017-06-13T13:15:30.330Z,22
2017-06-13T13:16:52.490Z,22.28
2017-06-13T13:18:14.982Z,22.22
2017-06-13T13:19:37.481Z,22.39
2017-06-13T13:20:59.728Z,22.33
2017-06-13T13:22:21.889Z,22.21
2017-06-13T13:23:43.530Z,22.6
2017-06-13T13:25:05.693Z,22.91
2017-06-13T13:26:27.332Z,23.09
2017-06-13T13:27:49.824Z,22.95
2017-06-13T13:29:12.381Z,23
2017-06-13T13:30:34.571Z,22.97
2017-06-13T13:31:56.752Z,22.72
2017-06-13T13:33:18.911Z,22.52
2017-06-13T13:34:41.125Z,22.12
2017-06-13T13:36:02.961Z,22
2017-06-13T13:37:25.237Z,21.69
2017-06-13T13:38:47.397Z,21.47
2017-06-13T13:40:09.571Z,21.19
2017-06-13T13:41:32.073Z,20.88
2017-06-13T13:42:54.661Z,20.8
2017-06-13T13:44:16.821Z,21.34
2017-06-13T13:45:39.098Z,21.24
2017-06-13T13:47:01.270Z,21.86
2017-06-13T13:48:23.462Z,21.99
2017-06-13T13:49:45.362Z,22.02
2017-06-13T13:51:07.281Z,21.53
2017-06-13T13:52:29.766Z,21.58
2017-06-13T13:53:51.921Z,21.71
2017-06-13T13:55:13.791Z,21.82
2017-06-13T13:56:35.970Z,21.8
2017-06-13T13:57:58.121Z,21.79
2017-06-13T13:59:20.344Z,21.92
2017-06-13T14:00:42.534Z,20.98
2017-06-13T14:02:04.700Z,20.99
2017-06-13T14:03:27.403Z,20.88
2017-06-13T14:04:49.557Z,20.67
2017-06-13T14:06:11.718Z,20.84
2017-06-13T14:07:33.582Z,20.84
2017-06-13T14:08:55.422Z,20.85
2017-06-13T14:10:17.341Z,20.7
2017-06-13T14:11:39.636Z,20.35
2017-06-13T14:13:02.121Z,20.31
2017-06-13T14:14:24.462Z,20.54
2017-06-13T14:15:46.621Z,20.41
2017-06-13T14:17:08.789Z,20.5
2017-06-13T14:18:30.935Z,20.92
2017-06-13T14:19:52.819Z,21.29
2017-06-13T14:21:14.981Z,21.21
2017-06-13T14:22:37.515Z,20.61
2017-06-13T14:23:59.370Z,21.19
2017-06-13T14:25:20.951Z,21.38
2017-06-13T14:26:43.415Z,21.71
2017-06-13T14:28:05.937Z,21.25
2017-06-13T14:29:28.221Z,21.64
2017-06-13T14:30:50.740Z,21.52
2017-06-13T14:32:13.244Z,21.64
2017-06-13T14:33:35.422Z,21.47
2017-06-13T14:34:57.647Z,21.54
2017-06-13T14:36:19.590Z,21.79
2017-06-13T14:37:42.080Z,22.15
2017-06-13T14:39:04.252Z,22.49
2017-06-13T14:40:25.889Z,22.51
2017-06-13T14:41:48.073Z,22.47
2017-06-13T14:43:10.243Z,22.36
2017-06-13T14:44:32.423Z,22.54
2017-06-13T14:45:54.622Z,22.64
2017-06-13T14:47:16.494Z,22.76
2017-06-13T14:48:39.012Z,22.7
2017-06-13T14:50:00.539Z,22.58
2017-06-13T14:51:22.753Z,22.35
2017-06-13T14:52:44.592Z,21.98
2017-06-13T14:54:07.150Z,21.4
2017-06-13T14:55:29.831Z,21.59
2017-06-13T14:56:52.012Z,21.59
2017-06-13T14:58:14.569Z,21.62
2017-06-13T14:59:36.750Z,21.72
2017-06-13T15:00:58.583Z,21.58
2017-06-13T15:02:21.173Z,20.77
2017-06-13T15:03:43.649Z,20.72
2017-06-13T15:05:06.251Z,20.62
2017-06-13T15:06:28.081Z,20.82
2017-06-13T15:07:50.402Z,20.8
2017-06-13T15:09:13.066Z,20.61
2017-06-13T15:10:35.284Z,20.31
2017-06-13T15:11:57.153Z,20.24
2017-06-13T15:13:18.680Z,20.39
2017-06-13T15:14:40.847Z,20.55
2017-06-13T15:16:02.700Z,20.5
2017-06-13T15:17:24.625Z,20.43
2017-06-13T15:18:46.778Z,20.76
2017-06-13T15:20:08.792Z,20.84
2017-06-13T15:21:31.291Z,20.79
2017-06-13T15:22:53.144Z,20.73
2017-06-13T15:24:15.784Z,20.85
2017-06-13T15:25:38.453Z,20.58
2017-06-13T15:27:00.317Z,20.61
2017-06-13T15:28:22.791Z,20.73
2017-06-13T15:29:44.974Z,20.89
2017-06-13T15:31:07.482Z,21.28
2017-06-13T15:32:29.996Z,21.28
2017-06-13T15:33:52.169Z,21.46
2017-06-13T15:35:13.723Z,21.35
2017-06-13T15:36:35.883Z,21.59
2017-06-13T15:37:57.818Z,21.8
2017-06-13T15:39:20.037Z,21.72
2017-06-13T15:40:42.363Z,21.69
2017-06-13T15:42:04.853Z,21.82
2017-06-13T15:43:26.741Z,21.83
2017-06-13T15:44:48.589Z,21.54
2017-06-13T15:46:10.162Z,21.67
2017-06-13T15:47:32.363Z,21.92
2017-06-13T15:48:54.834Z,22.05
2017-06-13T15:50:17.323Z,21.92
2017-06-13T15:51:39.496Z,22
2017-06-13T15:53:02.430Z,22.14
2017-06-13T15:54:24.596Z,22.18
2017-06-13T15:55:46.840Z,22.28
2017-06-13T15:57:09.343Z,22.21
2017-06-13T15:58:31.992Z,22.03
2017-06-13T15:59:54.159Z,21.67
2017-06-13T16:01:16.342Z,21.53
2017-06-13T16:02:38.543Z,21.27
2017-06-13T16:04:00.762Z,20.79
2017-06-13T16:05:23.665Z,20.58
2017-06-13T16:06:45.510Z,20.52
2017-06-13T16:08:07.701Z,20.21
2017-06-13T16:09:30.194Z,20.32
2017-06-13T16:10:52.365Z,20.61
2017-06-13T16:12:14.650Z,20.57
2017-06-13T16:13:37.167Z,20.33
2017-06-13T16:14:59.392Z,20.35
2017-06-13T16:16:21.671Z,20.35
2017-06-13T16:17:43.203Z,20.1
2017-06-13T16:19:05.353Z,20.08
2017-06-13T16:20:27.962Z,19.78
2017-06-13T16:21:50.536Z,19.74
2017-06-13T16:23:12.715Z,19.84
2017-06-13T16:24:35.219Z,19.76
2017-06-13T16:25:57.489Z,19.58
2017-06-13T16:27:19.774Z,19.68
2017-06-13T16:28:41.973Z,19.83
2017-06-13T16:30:03.557Z,19.98
2017-06-13T16:31:25.155Z,19.96
2017-06-13T16:32:47.330Z,19.71
2017-06-13T16:34:09.513Z,19.71
2017-06-13T16:35:31.883Z,19.91
2017-06-13T16:36:54.423Z,19.94
2017-06-13T16:38:16.288Z,19.81
2017-06-13T16:39:38.464Z,19.69
2017-06-13T16:41:00.957Z,19.54
2017-06-13T16:42:23.442Z,19.58
2017-06-13T16:43:45.650Z,19.62
2017-06-13T16:45:07.510Z,19.62
2017-06-13T16:46:29.684Z,19.71
2017-06-13T16:47:51.993Z,19.71
2017-06-13T16:49:13.884Z,19.76
2017-06-13T16:50:36.371Z,19.77
2017-06-13T16:51:58.242Z,19.87
2017-06-13T16:53:20.117Z,19.99
2017-06-13T16:54:42.704Z,19.96
2017-06-13T16:56:04.561Z,20.03
2017-06-13T16:57:26.424Z,19.99
2017-06-13T16:58:48.701Z,19.94
2017-06-13T17:00:10.931Z,19.94
2017-06-13T17:01:33.244Z,19.88
2017-06-13T17:02:55.421Z,19.94
2017-06-13T17:04:18.272Z,20.02
2017-06-13T17:05:40.231Z,19.99
2017-06-13T17:07:02.722Z,19.91
2017-06-13T17:08:24.954Z,19.88
2017-06-13T17:09:46.847Z,19.91
2017-06-13T17:11:09.234Z,19.95
2017-06-13T17:12:31.415Z,19.78
2017-06-13T17:13:54.012Z,19.8
2017-06-13T17:15:16.545Z,19.68
2017-06-13T17:16:39.141Z,19.51
2017-06-13T17:18:01.026Z,19.43
2017-06-13T17:19:23.538Z,19.37
2017-06-13T17:20:46.111Z,19.33
2017-06-13T17:22:08.734Z,19.47
2017-06-13T17:23:30.926Z,19.44
2017-06-13T17:24:53.470Z,19.46
2017-06-13T17:26:15.621Z,19.43
2017-06-13T17:27:38.334Z,19.46
2017-06-13T17:29:00.995Z,19.58
2017-06-13T17:30:23.511Z,19.46
2017-06-13T17:31:45.742Z,19.47
2017-06-13T17:33:08.265Z,19.5
2017-06-13T17:34:30.442Z,19.36
2017-06-13T17:35:52.663Z,19.32
2017-06-13T17:37:14.888Z,19.21
2017-06-13T17:38:37.462Z,19.14
2017-06-13T17:39:59.951Z,19
2017-06-13T17:41:22.448Z,18.98